tititudorancea.com
Station Historical Data
Daily Summary for March 15, 2019 Units:  English    Metric   Both
« Previous Day
Next Day »
Daily Weekly Monthly Yearly Custom
  High: Low: Average:
Temperature: TemperatureF °F 49.0 °F 51.1 °F
Dew Point: DewpointF °F 45.6 °F 46.6 °F
Humidity: Humidity % 59 % 84 %
Wind Speed: WindSpeedMPH mph 3.5 mph 7.3 mph
Wind Gust: WindSpeedGustMPH mph - -
Wind:- - SSW
Pressure: PressureIn in 30.00 in -
Precipitation: 0.00 in    
Historical Graphs
 
 
Ararat weather Find more about Weather in Ararat, AU


 



 


Tabular Data for March 15, 2019
Time Temperature Dew Point Pressure Wind Wind Speed Wind Gust Humidity Rainfall Rate (Hourly)
TemperatureF °F DewpointF °F PressureIn in Calm     Humidity % HourlyPrecipIn in
00:04 52.2 °F 46.5 °F 30.03 in South 8.1 mph 5.8 mph 81 % 0.00 in
00:09 52.1 °F 46.4 °F 30.03 in South 7.0 mph 4.4 mph 81 % 0.00 in
00:14 52.0 °F 46.3 °F 30.03 in South 10.4 mph 6.1 mph 81 % 0.00 in
00:19 52.0 °F 46.3 °F 30.03 in South 6.9 mph 3.7 mph 81 % 0.00 in
00:24 52.0 °F 46.3 °F 30.03 in South 10.4 mph 4.8 mph 81 % 0.00 in
00:29 51.8 °F 46.5 °F 30.03 in South 9.2 mph 3.8 mph 82 % 0.00 in
00:34 51.8 °F 46.5 °F 30.03 in South 8.1 mph 4.0 mph 82 % 0.00 in
00:39 51.7 °F 46.4 °F 30.03 in South 5.8 mph 4.7 mph 82 % 0.00 in
00:44 51.7 °F 46.4 °F 30.03 in South 5.8 mph 4.1 mph 82 % 0.00 in
00:49 51.6 °F 46.3 °F 30.03 in South 6.9 mph 3.7 mph 82 % 0.00 in
00:54 51.5 °F 46.2 °F 30.03 in South 4.6 mph 3.8 mph 82 % 0.00 in
00:59 51.4 °F 46.1 °F 30.03 in North 5.8 mph 3.9 mph 82 % 0.00 in
01:04 51.3 °F 46.3 °F 30.03 in South 8.1 mph 2.9 mph 83 % 0.00 in
01:09 51.2 °F 46.2 °F 30.03 in South 4.6 mph 3.2 mph 83 % 0.00 in
01:14 51.1 °F 46.1 °F 30.03 in South 5.8 mph 3.5 mph 83 % 0.00 in
01:19 51.0 °F 46.0 °F 30.03 in South 4.6 mph 2.3 mph 83 % 0.00 in
01:24 50.9 °F 46.2 °F 30.03 in South 8.1 mph 5.6 mph 84 % 0.00 in
01:29 50.9 °F 46.2 °F 30.02 in South 6.9 mph 5.2 mph 84 % 0.00 in
01:34 50.9 °F 46.2 °F 30.02 in North 8.1 mph 5.9 mph 84 % 0.00 in
01:39 50.8 °F 46.1 °F 30.02 in South 5.8 mph 3.6 mph 84 % 0.00 in
01:44 50.8 °F 46.1 °F 30.02 in South 8.1 mph 3.7 mph 84 % 0.00 in
01:49 50.7 °F 46.0 °F 30.02 in South 4.0 mph 2.6 mph 84 % 0.00 in
01:54 50.6 °F 45.9 °F 30.02 in South 3.5 mph 3.7 mph 84 % 0.00 in
01:59 50.5 °F 46.2 °F 30.02 in South 6.9 mph 4.3 mph 85 % 0.00 in
02:04 50.5 °F 46.2 °F 30.02 in South 4.6 mph 3.8 mph 85 % 0.00 in
02:09 50.5 °F 46.2 °F 30.02 in South 5.8 mph 4.6 mph 85 % 0.00 in
02:14 50.5 °F 46.2 °F 30.02 in South 8.1 mph 5.0 mph 85 % 0.00 in
02:19 50.4 °F 46.4 °F 30.02 in South 5.8 mph 3.1 mph 86 % 0.00 in
02:24 50.3 °F 46.3 °F 30.02 in South 6.9 mph 3.4 mph 86 % 0.00 in
02:29 50.2 °F 46.2 °F 30.02 in South 5.8 mph 3.5 mph 86 % 0.00 in
02:34 50.2 °F 46.2 °F 30.02 in South 3.5 mph 2.3 mph 86 % 0.00 in
02:39 50.2 °F 46.5 °F 30.02 in South 6.9 mph 3.2 mph 87 % 0.00 in
02:44 50.2 °F 46.5 °F 30.02 in South 3.5 mph 2.5 mph 87 % 0.00 in
02:49 50.0 °F 46.0 °F 30.02 in South 4.6 mph 1.8 mph 86 % 0.00 in
02:54 49.9 °F 45.9 °F 30.02 in North 5.8 mph 3.8 mph 86 % 0.00 in
02:59 49.8 °F 46.1 °F 30.02 in South 4.6 mph 2.8 mph 87 % 0.00 in
03:04 49.6 °F 45.9 °F 30.02 in South 5.8 mph 3.9 mph 87 % 0.00 in
03:09 49.4 °F 45.7 °F 30.02 in South 4.0 mph 3.3 mph 87 % 0.00 in
03:14 49.3 °F 45.6 °F 30.01 in North 5.8 mph 4.2 mph 87 % 0.00 in
03:19 49.3 °F 45.9 °F 30.02 in South 6.9 mph 4.5 mph 88 % 0.00 in
03:23 49.2 °F 45.8 °F 30.01 in South 3.5 mph 2.5 mph 88 % 0.00 in
03:29 49.1 °F 45.7 °F 30.01 in North 4.6 mph 2.7 mph 88 % 0.00 in
03:34 49.1 °F 45.7 °F 30.01 in South 6.9 mph 4.5 mph 88 % 0.00 in
03:39 49.0 °F 45.6 °F 30.01 in North 8.1 mph 4.6 mph 88 % 0.00 in
03:44 49.1 °F 46.0 °F 30.01 in South 4.6 mph 1.7 mph 89 % 0.00 in
03:49 49.1 °F 46.0 °F 30.01 in South 4.6 mph 4.1 mph 89 % 0.00 in
03:54 49.2 °F 46.1 °F 30.00 in South 5.8 mph 3.3 mph 89 % 0.00 in
03:59 49.3 °F 46.2 °F 30.01 in South 5.0 mph 3.8 mph 89 % 0.00 in
04:04 49.5 °F 46.4 °F 30.01 in South 6.9 mph 3.4 mph 89 % 0.00 in
04:09 49.6 °F 46.5 °F 30.01 in North 6.9 mph 4.3 mph 89 % 0.00 in
04:14 49.9 °F 46.8 °F 30.01 in South 8.1 mph 4.7 mph 89 % 0.00 in
04:19 50.0 °F 46.9 °F 30.01 in South 9.0 mph 5.1 mph 89 % 0.00 in
04:24 50.0 °F 46.9 °F 30.01 in South 6.9 mph 3.1 mph 89 % 0.00 in
04:29 50.1 °F 47.0 °F 30.01 in South 6.0 mph 4.4 mph 89 % 0.00 in
04:34 50.2 °F 47.1 °F 30.01 in South 5.8 mph 4.7 mph 89 % 0.00 in
04:39 50.2 °F 46.8 °F 30.01 in North 8.1 mph 5.9 mph 88 % 0.00 in
04:44 50.2 °F 46.8 °F 30.01 in South 8.0 mph 5.2 mph 88 % 0.00 in
04:49 50.1 °F 46.7 °F 30.01 in South 6.9 mph 4.4 mph 88 % 0.00 in
04:54 50.1 °F 46.7 °F 30.01 in South 6.9 mph 5.7 mph 88 % 0.00 in
04:59 50.0 °F 46.6 °F 30.01 in South 6.9 mph 5.0 mph 88 % 0.00 in
05:04 49.9 °F 46.5 °F 30.01 in South 4.6 mph 1.7 mph 88 % 0.00 in
05:09 49.7 °F 46.3 °F 30.01 in South 5.8 mph 1.8 mph 88 % 0.00 in
05:14 49.6 °F 46.2 °F 30.01 in North 5.8 mph 2.9 mph 88 % 0.00 in
05:19 49.5 °F 46.1 °F 30.01 in North 4.6 mph 3.6 mph 88 % 0.00 in
05:24 49.4 °F 46.3 °F 30.01 in South 8.0 mph 4.1 mph 89 % 0.00 in
05:29 49.5 °F 46.4 °F 30.01 in South 8.0 mph 5.2 mph 89 % 0.00 in
05:34 49.4 °F 46.3 °F 30.02 in North 4.6 mph 4.3 mph 89 % 0.00 in
05:39 49.3 °F 46.2 °F 30.02 in South 6.9 mph 3.5 mph 89 % 0.00 in
05:44 49.2 °F 46.1 °F 30.02 in South 8.1 mph 4.7 mph 89 % 0.00 in
05:49 49.1 °F 46.0 °F 30.02 in South 5.8 mph 3.0 mph 89 % 0.00 in
05:54 49.1 °F 46.0 °F 30.02 in South 7.0 mph 5.6 mph 89 % 0.00 in
05:59 49.1 °F 46.0 °F 30.02 in North 4.6 mph 2.5 mph 89 % 0.00 in
06:04 49.1 °F 46.3 °F 30.02 in South 8.1 mph 5.3 mph 90 % 0.00 in
06:09 49.2 °F 46.4 °F 30.02 in South 6.9 mph 5.7 mph 90 % 0.00 in
06:14 49.4 °F 46.6 °F 30.02 in North 9.2 mph 6.2 mph 90 % 0.00 in
06:19 49.5 °F 46.7 °F 30.02 in South 8.1 mph 5.0 mph 90 % 0.00 in
06:24 49.5 °F 46.7 °F 30.02 in South 4.6 mph 4.4 mph 90 % 0.00 in
06:29 49.6 °F 46.8 °F 30.02 in South 6.9 mph 5.4 mph 90 % 0.00 in
06:34 49.6 °F 46.5 °F 30.02 in North 6.9 mph 5.8 mph 89 % 0.00 in
06:39 49.6 °F 46.5 °F 30.02 in North 8.1 mph 5.5 mph 89 % 0.00 in
06:44 49.6 °F 46.5 °F 30.03 in North 9.2 mph 3.9 mph 89 % 0.00 in
06:49 49.7 °F 46.6 °F 30.03 in South 10.4 mph 5.2 mph 89 % 0.00 in
06:54 49.8 °F 46.7 °F 30.03 in North 9.2 mph 5.8 mph 89 % 0.00 in
06:59 49.8 °F 46.7 °F 30.03 in South 5.8 mph 3.9 mph 89 % 0.00 in
07:04 49.7 °F 46.6 °F 30.03 in South 6.9 mph 5.2 mph 89 % 0.00 in
07:09 49.7 °F 46.6 °F 30.03 in South 9.2 mph 5.2 mph 89 % 0.00 in
07:14 49.8 °F 46.7 °F 30.03 in South 9.2 mph 5.8 mph 89 % 0.00 in
07:19 49.8 °F 46.7 °F 30.03 in South 8.1 mph 6.2 mph 89 % 0.00 in
07:24 49.9 °F 46.8 °F 30.04 in South 8.1 mph 6.2 mph 89 % 0.00 in
07:29 49.8 °F 46.7 °F 30.04 in South 7.0 mph 6.3 mph 89 % 0.00 in
07:34 49.9 °F 46.8 °F 30.04 in North 8.1 mph 6.8 mph 89 % 0.00 in
07:39 49.9 °F 46.8 °F 30.04 in South 6.9 mph 4.8 mph 89 % 0.00 in
07:44 50.0 °F 46.9 °F 30.04 in South 6.9 mph 5.9 mph 89 % 0.00 in
07:49 50.1 °F 46.7 °F 30.04 in South 7.0 mph 3.9 mph 88 % 0.00 in
07:54 50.4 °F 47.3 °F 30.04 in South 5.8 mph 4.0 mph 89 % 0.00 in
07:59 50.7 °F 47.3 °F 30.05 in South 6.9 mph 3.2 mph 88 % 0.00 in
08:04 51.1 °F 47.7 °F 30.05 in South 9.0 mph 6.3 mph 88 % 0.00 in
08:09 51.4 °F 48.0 °F 30.06 in South 9.2 mph 5.8 mph 88 % 0.00 in
08:14 51.6 °F 47.9 °F 30.06 in South 6.9 mph 6.6 mph 87 % 0.00 in
08:19 51.8 °F 48.1 °F 30.07 in South 10.4 mph 5.9 mph 87 % 0.00 in
08:24 51.9 °F 48.2 °F 30.07 in North 11.5 mph 7.9 mph 87 % 0.00 in
08:29 52.1 °F 48.3 °F 30.07 in South 8.1 mph 7.1 mph 87 % 0.00 in
08:34 52.3 °F 48.5 °F 30.07 in South 9.2 mph 6.1 mph 87 % 0.00 in
08:39 52.7 °F 48.9 °F 30.07 in South 12.7 mph 8.9 mph 87 % 0.00 in
08:44 53.1 °F 49.3 °F 30.07 in South 9.2 mph 9.2 mph 87 % 0.00 in
08:49 53.6 °F 49.8 °F 30.07 in SE 8.1 mph 8.0 mph 87 % 0.00 in
08:54 54.0 °F 49.9 °F 30.07 in SSE 12.7 mph 6.2 mph 86 % 0.00 in
08:59 54.3 °F 49.9 °F 30.08 in SSE 9.2 mph 5.4 mph 85 % 0.00 in
09:00 54.3 °F 49.9 °F 30.08 in SSE 6.0 mph 15.0 mph 85 % 0.00 in
20:09 65.2 °F 50.5 °F 30.07 in SE 11.5 mph 8.1 mph 59 % 0.00 in
20:14 64.8 °F 50.6 °F 30.07 in SE 13.0 mph 9.6 mph 60 % 0.00 in
20:19 64.5 °F 50.7 °F 30.07 in SE 12.7 mph 7.4 mph 61 % 0.00 in
20:24 64.2 °F 50.9 °F 30.08 in SE 11.5 mph 6.7 mph 62 % 0.00 in
20:29 63.8 °F 51.0 °F 30.08 in SE 12.7 mph 5.4 mph 63 % 0.00 in
20:34 63.5 °F 51.1 °F 30.08 in SE 15.0 mph 8.9 mph 64 % 0.00 in
20:39 63.2 °F 50.8 °F 30.08 in SE 15.0 mph 4.4 mph 64 % 0.00 in
20:44 62.9 °F 51.0 °F 30.08 in SE 12.7 mph 9.8 mph 65 % 0.00 in
20:49 62.6 °F 51.1 °F 30.08 in SE 10.4 mph 6.0 mph 66 % 0.00 in
20:52 62.6 °F 51.1 °F 30.08 in SE 5.8 mph 6.0 mph 66 % 0.00 in
Ararat Weather
Compliments of Weather Underground - 1.5 mb
Click here to send mail.


ABOUT

Live weather data from Ararat, Victoria, Australia, 3377
Data uploaded from Cumulus every 5 minutes to Weather Underground.
This site then downloads the raw data for formatting and display.
Metric and imperial data can be displayed. Graphs and historical data available.
Includes Sun and Moon times and rain image live from BOM.

Check out Ararat Weather on Facebook, Twitter and Google +

Help support ongoing costs by checking out the ads





Follow @AraratWeather